Prt Angeles, Washington
Current Conditions -  °F | °C
As of 10:53 PM on Saturday 25 Oct 2014 (Local Time) from KCLM Reporting Station
NA  
Wind Chill: 52°   Ceiling: NA
Heat Index: 52°   Visibility: NA
Dew Point: 44°   Wind: 16mph
Humidity: 74%   Direction: 280°W
Pressure: 29.6"   Gusts: NA
Location:  47.9555°N, 123.813°W
Report Text: KCLM 260553Z AUTO 28014KT 11/07 A2960 RMK AO2 PK WND 28027/0454 SLP025 6//// T01110067 51081 TSNO $
Loading
Personal Weather Stations






























Interactive Weather Map
Tropical Storm Tracking
New forecast layout! Learn more

10-Day Weather Forecast

Advertisements
Track Severe Weather on mobile